sensor_id;sensor_type;location;lat;lon;timestamp;temperature;humidity
64012;DHT22;50211;52.768;12.124;2023-06-22T00:01:48;18.80;99.90
64012;DHT22;50211;52.768;12.124;2023-06-22T00:04:13;18.70;99.90
64012;DHT22;50211;52.768;12.124;2023-06-22T00:06:39;18.60;99.90
64012;DHT22;50211;52.768;12.124;2023-06-22T00:09:04;18.60;99.90
64012;DHT22;50211;52.768;12.124;2023-06-22T00:11:33;18.60;99.90
64012;DHT22;50211;52.768;12.124;2023-06-22T00:13:59;18.60;99.90
64012;DHT22;50211;52.768;12.124;2023-06-22T00:16:24;18.60;99.90
64012;DHT22;50211;52.768;12.124;2023-06-22T00:18:50;18.60;99.90
64012;DHT22;50211;52.768;12.124;2023-06-22T00:21:15;18.70;99.90
64012;DHT22;50211;52.768;12.124;2023-06-22T00:23:41;18.60;99.90
64012;DHT22;50211;52.768;12.124;2023-06-22T00:26:07;18.60;99.90
64012;DHT22;50211;52.768;12.124;2023-06-22T00:28:33;18.60;99.90
64012;DHT22;50211;52.768;12.124;2023-06-22T00:30:58;18.60;99.90
64012;DHT22;50211;52.768;12.124;2023-06-22T00:33:26;18.60;99.90
64012;DHT22;50211;52.768;12.124;2023-06-22T00:35:51;18.60;99.90
64012;DHT22;50211;52.768;12.124;2023-06-22T00:38:18;18.60;99.90
64012;DHT22;50211;52.768;12.124;2023-06-22T00:40:44;18.50;99.90
64012;DHT22;50211;52.768;12.124;2023-06-22T00:43:10;18.40;99.90
64012;DHT22;50211;52.768;12.124;2023-06-22T00:45:35;18.30;99.90
64012;DHT22;50211;52.768;12.124;2023-06-22T00:48:02;18.40;99.90
64012;DHT22;50211;52.768;12.124;2023-06-22T00:50:30;18.40;99.90
64012;DHT22;50211;52.768;12.124;2023-06-22T00:53:03;18.40;99.90
64012;DHT22;50211;52.768;12.124;2023-06-22T00:55:33;18.40;99.90
64012;DHT22;50211;52.768;12.124;2023-06-22T00:58:03;18.40;99.90
64012;DHT22;50211;52.768;12.124;2023-06-22T01:00:33;18.40;99.90
64012;DHT22;50211;52.768;12.124;2023-06-22T01:02:58;18.30;99.90
64012;DHT22;50211;52.768;12.124;2023-06-22T01:05:24;18.30;99.90
64012;DHT22;50211;52.768;12.124;2023-06-22T01:08:04;18.30;99.90
64012;DHT22;50211;52.768;12.124;2023-06-22T01:10:50;18.20;99.90
64012;DHT22;50211;52.768;12.124;2023-06-22T01:13:29;18.10;99.90
64012;DHT22;50211;52.768;12.124;2023-06-22T01:21:40;18.00;99.90
64012;DHT22;50211;52.768;12.124;2023-06-22T01:24:22;17.80;99.90
64012;DHT22;50211;52.768;12.124;2023-06-22T01:29:32;17.70;99.90
64012;DHT22;50211;52.768;12.124;2023-06-22T01:31:59;17.80;99.90
64012;DHT22;50211;52.768;12.124;2023-06-22T01:34:25;17.70;99.90
64012;DHT22;50211;52.768;12.124;2023-06-22T01:36:52;17.70;99.90
64012;DHT22;50211;52.768;12.124;2023-06-22T01:39:18;17.70;99.90
64012;DHT22;50211;52.768;12.124;2023-06-22T01:41:44;17.70;99.90
64012;DHT22;50211;52.768;12.124;2023-06-22T01:44:10;17.60;99.90
64012;DHT22;50211;52.768;12.124;2023-06-22T01:46:37;17.60;99.90
64012;DHT22;50211;52.768;12.124;2023-06-22T01:49:04;17.60;99.90
64012;DHT22;50211;52.768;12.124;2023-06-22T01:51:30;17.50;99.90
64012;DHT22;50211;52.768;12.124;2023-06-22T01:53:56;17.60;99.90
64012;DHT22;50211;52.768;12.124;2023-06-22T01:56:22;17.50;99.90
64012;DHT22;50211;52.768;12.124;2023-06-22T01:59:04;17.50;99.90
64012;DHT22;50211;52.768;12.124;2023-06-22T02:01:35;17.50;99.90
64012;DHT22;50211;52.768;12.124;2023-06-22T02:04:27;17.60;99.90
64012;DHT22;50211;52.768;12.124;2023-06-22T02:06:57;17.60;99.90
64012;DHT22;50211;52.768;12.124;2023-06-22T02:09:24;17.50;99.90
64012;DHT22;50211;52.768;12.124;2023-06-22T02:11:54;17.50;99.90
64012;DHT22;50211;52.768;12.124;2023-06-22T02:14:22;17.50;99.90
64012;DHT22;50211;52.768;12.124;2023-06-22T02:16:47;17.40;99.90
64012;DHT22;50211;52.768;12.124;2023-06-22T02:19:13;17.50;99.90
64012;DHT22;50211;52.768;12.124;2023-06-22T02:21:41;17.40;99.90
64012;DHT22;50211;52.768;12.124;2023-06-22T02:24:06;17.50;99.90
64012;DHT22;50211;52.768;12.124;2023-06-22T02:26:32;17.50;99.90
64012;DHT22;50211;52.768;12.124;2023-06-22T02:28:58;17.40;99.90
64012;DHT22;50211;52.768;12.124;2023-06-22T02:31:23;17.40;99.90
64012;DHT22;50211;52.768;12.124;2023-06-22T02:33:56;17.30;99.90
64012;DHT22;50211;52.768;12.124;2023-06-22T02:36:23;17.40;99.90
64012;DHT22;50211;52.768;12.124;2023-06-22T02:38:49;17.30;99.90
64012;DHT22;50211;52.768;12.124;2023-06-22T02:41:15;17.30;99.90
64012;DHT22;50211;52.768;12.124;2023-06-22T02:43:47;17.30;99.90
64012;DHT22;50211;52.768;12.124;2023-06-22T02:46:13;17.30;99.90
64012;DHT22;50211;52.768;12.124;2023-06-22T02:48:42;17.20;99.90
64012;DHT22;50211;52.768;12.124;2023-06-22T02:51:08;17.10;99.90
64012;DHT22;50211;52.768;12.124;2023-06-22T02:53:34;16.90;99.90
64012;DHT22;50211;52.768;12.124;2023-06-22T02:56:03;16.80;99.90
64012;DHT22;50211;52.768;12.124;2023-06-22T02:58:31;16.90;99.90
64012;DHT22;50211;52.768;12.124;2023-06-22T03:01:03;17.00;99.90
64012;DHT22;50211;52.768;12.124;2023-06-22T03:03:30;16.90;99.90
64012;DHT22;50211;52.768;12.124;2023-06-22T03:05:55;16.90;99.90
64012;DHT22;50211;52.768;12.124;2023-06-22T03:08:21;16.90;99.90
64012;DHT22;50211;52.768;12.124;2023-06-22T03:10:46;16.90;99.90
64012;DHT22;50211;52.768;12.124;2023-06-22T03:13:11;16.80;99.90
64012;DHT22;50211;52.768;12.124;2023-06-22T03:15:37;16.80;99.90
64012;DHT22;50211;52.768;12.124;2023-06-22T03:18:03;16.80;99.90
64012;DHT22;50211;52.768;12.124;2023-06-22T03:20:28;16.80;99.90
64012;DHT22;50211;52.768;12.124;2023-06-22T03:22:58;16.80;99.90
64012;DHT22;50211;52.768;12.124;2023-06-22T03:25:24;16.80;99.90
64012;DHT22;50211;52.768;12.124;2023-06-22T03:27:49;16.70;99.90
64012;DHT22;50211;52.768;12.124;2023-06-22T03:30:15;16.90;99.90
64012;DHT22;50211;52.768;12.124;2023-06-22T03:32:40;16.90;99.90
64012;DHT22;50211;52.768;12.124;2023-06-22T03:35:08;16.90;99.90
64012;DHT22;50211;52.768;12.124;2023-06-22T03:37:33;16.90;99.90
64012;DHT22;50211;52.768;12.124;2023-06-22T03:39:59;16.90;99.90
64012;DHT22;50211;52.768;12.124;2023-06-22T03:42:25;17.00;99.90
64012;DHT22;50211;52.768;12.124;2023-06-22T03:44:51;17.00;99.90
64012;DHT22;50211;52.768;12.124;2023-06-22T03:47:17;17.10;99.90
64012;DHT22;50211;52.768;12.124;2023-06-22T03:49:43;17.20;99.90
64012;DHT22;50211;52.768;12.124;2023-06-22T03:52:08;17.20;99.90
64012;DHT22;50211;52.768;12.124;2023-06-22T03:54:34;17.30;99.90
64012;DHT22;50211;52.768;12.124;2023-06-22T03:56:59;17.30;99.90
64012;DHT22;50211;52.768;12.124;2023-06-22T03:59:25;17.40;99.90
64012;DHT22;50211;52.768;12.124;2023-06-22T04:01:51;17.20;99.90
64012;DHT22;50211;52.768;12.124;2023-06-22T04:04:19;17.20;99.90
64012;DHT22;50211;52.768;12.124;2023-06-22T04:06:44;17.30;99.90
64012;DHT22;50211;52.768;12.124;2023-06-22T04:09:10;17.20;99.90
64012;DHT22;50211;52.768;12.124;2023-06-22T04:11:36;17.30;99.90
64012;DHT22;50211;52.768;12.124;2023-06-22T04:14:01;17.30;99.90
64012;DHT22;50211;52.768;12.124;2023-06-22T04:16:27;17.30;99.90
64012;DHT22;50211;52.768;12.124;2023-06-22T04:18:52;17.40;99.90
64012;DHT22;50211;52.768;12.124;2023-06-22T04:21:19;17.50;99.90
64012;DHT22;50211;52.768;12.124;2023-06-22T04:23:47;17.50;99.90
64012;DHT22;50211;52.768;12.124;2023-06-22T04:26:13;17.60;99.90
64012;DHT22;50211;52.768;12.124;2023-06-22T04:28:40;17.60;99.90
64012;DHT22;50211;52.768;12.124;2023-06-22T04:31:05;17.70;99.90
64012;DHT22;50211;52.768;12.124;2023-06-22T04:33:31;17.70;99.90
64012;DHT22;50211;52.768;12.124;2023-06-22T04:35:57;17.70;99.90
64012;DHT22;50211;52.768;12.124;2023-06-22T04:38:23;17.80;99.90
64012;DHT22;50211;52.768;12.124;2023-06-22T04:40:50;17.70;99.90
64012;DHT22;50211;52.768;12.124;2023-06-22T04:43:15;17.70;99.90
64012;DHT22;50211;52.768;12.124;2023-06-22T04:45:41;17.70;99.90
64012;DHT22;50211;52.768;12.124;2023-06-22T04:48:07;17.80;99.90
64012;DHT22;50211;52.768;12.124;2023-06-22T04:50:34;17.90;99.90
64012;DHT22;50211;52.768;12.124;2023-06-22T04:52:59;18.00;99.90
64012;DHT22;50211;52.768;12.124;2023-06-22T04:55:25;18.10;99.90
64012;DHT22;50211;52.768;12.124;2023-06-22T04:57:51;18.10;99.90
64012;DHT22;50211;52.768;12.124;2023-06-22T05:00:20;18.20;99.90
64012;DHT22;50211;52.768;12.124;2023-06-22T05:02:47;18.30;99.90
64012;DHT22;50211;52.768;12.124;2023-06-22T05:05:13;18.40;99.90
64012;DHT22;50211;52.768;12.124;2023-06-22T05:07:43;18.60;99.90
64012;DHT22;50211;52.768;12.124;2023-06-22T05:10:10;18.70;99.90
64012;DHT22;50211;52.768;12.124;2023-06-22T05:12:37;18.70;99.90
64012;DHT22;50211;52.768;12.124;2023-06-22T05:15:03;18.70;99.90
64012;DHT22;50211;52.768;12.124;2023-06-22T05:17:29;18.70;99.90
64012;DHT22;50211;52.768;12.124;2023-06-22T05:19:54;18.80;99.90
64012;DHT22;50211;52.768;12.124;2023-06-22T05:22:21;18.90;99.90
64012;DHT22;50211;52.768;12.124;2023-06-22T05:24:46;19.00;99.90
64012;DHT22;50211;52.768;12.124;2023-06-22T05:27:12;19.00;99.90
64012;DHT22;50211;52.768;12.124;2023-06-22T05:29:38;19.10;99.90
64012;DHT22;50211;52.768;12.124;2023-06-22T05:32:04;19.20;99.90
64012;DHT22;50211;52.768;12.124;2023-06-22T05:34:30;19.30;99.90
64012;DHT22;50211;52.768;12.124;2023-06-22T05:36:55;19.40;99.90
64012;DHT22;50211;52.768;12.124;2023-06-22T05:39:21;19.50;99.90
64012;DHT22;50211;52.768;12.124;2023-06-22T05:41:46;19.50;99.90
64012;DHT22;50211;52.768;12.124;2023-06-22T05:44:12;19.70;99.90
64012;DHT22;50211;52.768;12.124;2023-06-22T05:46:41;19.70;99.90
64012;DHT22;50211;52.768;12.124;2023-06-22T05:49:10;19.80;99.90
64012;DHT22;50211;52.768;12.124;2023-06-22T05:51:35;19.80;99.90
64012;DHT22;50211;52.768;12.124;2023-06-22T05:54:01;19.90;99.90
64012;DHT22;50211;52.768;12.124;2023-06-22T05:56:26;20.10;99.90
64012;DHT22;50211;52.768;12.124;2023-06-22T05:58:53;20.20;99.90
64012;DHT22;50211;52.768;12.124;2023-06-22T06:01:18;20.20;99.90
64012;DHT22;50211;52.768;12.124;2023-06-22T06:03:44;20.30;99.90
64012;DHT22;50211;52.768;12.124;2023-06-22T06:06:09;20.40;99.90
64012;DHT22;50211;52.768;12.124;2023-06-22T06:08:37;20.50;99.90
64012;DHT22;50211;52.768;12.124;2023-06-22T06:11:02;20.60;99.90
64012;DHT22;50211;52.768;12.124;2023-06-22T06:13:28;20.80;99.90
64012;DHT22;50211;52.768;12.124;2023-06-22T06:15:53;20.90;99.90
64012;DHT22;50211;52.768;12.124;2023-06-22T06:18:22;21.00;99.90
64012;DHT22;50211;52.768;12.124;2023-06-22T06:20:48;21.10;99.90
64012;DHT22;50211;52.768;12.124;2023-06-22T06:23:13;21.20;99.90
64012;DHT22;50211;52.768;12.124;2023-06-22T06:25:39;21.40;99.90
64012;DHT22;50211;52.768;12.124;2023-06-22T06:28:04;21.50;99.90
64012;DHT22;50211;52.768;12.124;2023-06-22T06:30:30;21.60;99.90
64012;DHT22;50211;52.768;12.124;2023-06-22T06:32:56;21.80;99.90
64012;DHT22;50211;52.768;12.124;2023-06-22T06:35:22;21.90;99.90
64012;DHT22;50211;52.768;12.124;2023-06-22T06:37:49;22.10;99.90
64012;DHT22;50211;52.768;12.124;2023-06-22T06:40:16;22.20;99.90
64012;DHT22;50211;52.768;12.124;2023-06-22T06:42:46;22.30;99.90
64012;DHT22;50211;52.768;12.124;2023-06-22T06:45:20;22.40;99.90
64012;DHT22;50211;52.768;12.124;2023-06-22T06:47:48;22.40;99.90
64012;DHT22;50211;52.768;12.124;2023-06-22T06:50:14;22.60;99.90
64012;DHT22;50211;52.768;12.124;2023-06-22T06:52:39;22.90;99.90
64012;DHT22;50211;52.768;12.124;2023-06-22T06:55:06;23.20;99.90
64012;DHT22;50211;52.768;12.124;2023-06-22T06:57:35;23.40;99.90
64012;DHT22;50211;52.768;12.124;2023-06-22T07:00:03;23.30;99.90
64012;DHT22;50211;52.768;12.124;2023-06-22T07:02:34;23.20;99.90
64012;DHT22;50211;52.768;12.124;2023-06-22T07:05:00;23.30;99.90
64012;DHT22;50211;52.768;12.124;2023-06-22T07:07:25;23.40;99.90
64012;DHT22;50211;52.768;12.124;2023-06-22T07:09:51;23.60;99.90
64012;DHT22;50211;52.768;12.124;2023-06-22T07:12:16;23.70;99.90
64012;DHT22;50211;52.768;12.124;2023-06-22T07:14:41;23.70;99.90
64012;DHT22;50211;52.768;12.124;2023-06-22T07:17:07;23.70;99.90
64012;DHT22;50211;52.768;12.124;2023-06-22T07:19:33;23.90;99.90
64012;DHT22;50211;52.768;12.124;2023-06-22T07:21:58;24.20;99.90
64012;DHT22;50211;52.768;12.124;2023-06-22T07:24:24;24.30;99.90
64012;DHT22;50211;52.768;12.124;2023-06-22T07:26:50;24.30;99.90
64012;DHT22;50211;52.768;12.124;2023-06-22T07:29:20;24.20;99.90
64012;DHT22;50211;52.768;12.124;2023-06-22T07:31:47;24.20;99.90
64012;DHT22;50211;52.768;12.124;2023-06-22T07:34:13;24.40;99.90
64012;DHT22;50211;52.768;12.124;2023-06-22T07:36:39;24.70;99.90
64012;DHT22;50211;52.768;12.124;2023-06-22T07:39:05;24.70;99.90
64012;DHT22;50211;52.768;12.124;2023-06-22T07:41:31;24.70;99.90
64012;DHT22;50211;52.768;12.124;2023-06-22T07:43:56;24.70;99.90
64012;DHT22;50211;52.768;12.124;2023-06-22T07:46:22;24.60;99.90
64012;DHT22;50211;52.768;12.124;2023-06-22T07:48:48;24.60;99.90
64012;DHT22;50211;52.768;12.124;2023-06-22T07:51:14;24.60;99.90
64012;DHT22;50211;52.768;12.124;2023-06-22T07:53:43;24.50;99.90
64012;DHT22;50211;52.768;12.124;2023-06-22T07:56:13;24.60;99.90
64012;DHT22;50211;52.768;12.124;2023-06-22T07:58:44;24.80;99.90
64012;DHT22;50211;52.768;12.124;2023-06-22T08:01:09;24.90;99.90
64012;DHT22;50211;52.768;12.124;2023-06-22T08:03:35;25.00;99.90
64012;DHT22;50211;52.768;12.124;2023-06-22T08:06:01;25.30;99.90
64012;DHT22;50211;52.768;12.124;2023-06-22T08:08:26;25.60;99.90
64012;DHT22;50211;52.768;12.124;2023-06-22T08:10:52;25.80;99.90
64012;DHT22;50211;52.768;12.124;2023-06-22T08:13:17;26.10;99.90
64012;DHT22;50211;52.768;12.124;2023-06-22T08:15:43;26.40;99.90
64012;DHT22;50211;52.768;12.124;2023-06-22T08:18:08;26.60;99.90
64012;DHT22;50211;52.768;12.124;2023-06-22T08:20:34;26.90;99.90
64012;DHT22;50211;52.768;12.124;2023-06-22T08:22:59;27.30;99.90
64012;DHT22;50211;52.768;12.124;2023-06-22T08:25:31;27.40;99.90
64012;DHT22;50211;52.768;12.124;2023-06-22T08:27:56;27.30;99.90
64012;DHT22;50211;52.768;12.124;2023-06-22T08:30:22;27.40;99.90
64012;DHT22;50211;52.768;12.124;2023-06-22T08:32:47;27.60;99.90
64012;DHT22;50211;52.768;12.124;2023-06-22T08:35:13;27.60;99.90
64012;DHT22;50211;52.768;12.124;2023-06-22T08:37:39;27.50;99.90
64012;DHT22;50211;52.768;12.124;2023-06-22T08:40:06;27.40;99.90
64012;DHT22;50211;52.768;12.124;2023-06-22T08:42:36;27.60;99.90
64012;DHT22;50211;52.768;12.124;2023-06-22T08:45:02;27.70;99.90
64012;DHT22;50211;52.768;12.124;2023-06-22T08:47:28;27.70;99.90
64012;DHT22;50211;52.768;12.124;2023-06-22T08:49:54;27.40;99.90
64012;DHT22;50211;52.768;12.124;2023-06-22T08:52:19;27.60;99.90
64012;DHT22;50211;52.768;12.124;2023-06-22T08:54:46;27.90;99.90
64012;DHT22;50211;52.768;12.124;2023-06-22T08:57:11;28.20;99.90
64012;DHT22;50211;52.768;12.124;2023-06-22T08:59:37;28.30;99.90
64012;DHT22;50211;52.768;12.124;2023-06-22T09:02:02;28.30;99.90
64012;DHT22;50211;52.768;12.124;2023-06-22T09:04:28;28.30;99.90
64012;DHT22;50211;52.768;12.124;2023-06-22T09:06:53;28.10;99.90
64012;DHT22;50211;52.768;12.124;2023-06-22T09:09:20;27.60;99.90
64012;DHT22;50211;52.768;12.124;2023-06-22T09:11:46;27.70;99.90
64012;DHT22;50211;52.768;12.124;2023-06-22T09:14:12;27.70;99.90
64012;DHT22;50211;52.768;12.124;2023-06-22T09:16:37;27.60;99.90
64012;DHT22;50211;52.768;12.124;2023-06-22T09:19:03;27.80;99.90
64012;DHT22;50211;52.768;12.124;2023-06-22T09:21:28;28.20;99.90
64012;DHT22;50211;52.768;12.124;2023-06-22T09:23:54;28.60;99.90
64012;DHT22;50211;52.768;12.124;2023-06-22T09:26:20;28.80;99.90
64012;DHT22;50211;52.768;12.124;2023-06-22T09:28:46;28.80;99.90
64012;DHT22;50211;52.768;12.124;2023-06-22T09:31:12;29.00;99.90
64012;DHT22;50211;52.768;12.124;2023-06-22T09:33:39;29.00;99.90
64012;DHT22;50211;52.768;12.124;2023-06-22T09:36:06;29.00;99.90
64012;DHT22;50211;52.768;12.124;2023-06-22T09:38:37;29.30;99.90
64012;DHT22;50211;52.768;12.124;2023-06-22T09:41:03;29.60;99.90
64012;DHT22;50211;52.768;12.124;2023-06-22T09:43:30;29.80;99.90
64012;DHT22;50211;52.768;12.124;2023-06-22T09:45:56;29.80;99.90
64012;DHT22;50211;52.768;12.124;2023-06-22T09:48:22;30.30;99.90
64012;DHT22;50211;52.768;12.124;2023-06-22T09:50:47;30.80;99.90
64012;DHT22;50211;52.768;12.124;2023-06-22T09:53:13;30.80;99.90
64012;DHT22;50211;52.768;12.124;2023-06-22T09:55:38;31.00;99.90
64012;DHT22;50211;52.768;12.124;2023-06-22T09:58:04;31.10;99.90
64012;DHT22;50211;52.768;12.124;2023-06-22T10:00:29;31.10;99.90
64012;DHT22;50211;52.768;12.124;2023-06-22T10:02:55;30.90;99.90
64012;DHT22;50211;52.768;12.124;2023-06-22T10:05:21;30.50;99.90
64012;DHT22;50211;52.768;12.124;2023-06-22T10:07:47;30.10;99.90
64012;DHT22;50211;52.768;12.124;2023-06-22T10:10:13;30.50;99.90
64012;DHT22;50211;52.768;12.124;2023-06-22T10:12:46;30.50;99.90
64012;DHT22;50211;52.768;12.124;2023-06-22T10:15:12;30.30;99.90
64012;DHT22;50211;52.768;12.124;2023-06-22T10:17:37;30.40;99.90
64012;DHT22;50211;52.768;12.124;2023-06-22T10:20:04;30.30;99.90
64012;DHT22;50211;52.768;12.124;2023-06-22T10:22:37;29.90;99.90
64012;DHT22;50211;52.768;12.124;2023-06-22T10:25:03;29.80;99.90
64012;DHT22;50211;52.768;12.124;2023-06-22T10:27:28;29.80;99.90
64012;DHT22;50211;52.768;12.124;2023-06-22T10:29:54;30.30;99.90
64012;DHT22;50211;52.768;12.124;2023-06-22T10:32:20;30.60;99.90
64012;DHT22;50211;52.768;12.124;2023-06-22T10:34:45;31.00;99.90
64012;DHT22;50211;52.768;12.124;2023-06-22T10:37:11;30.90;99.90
64012;DHT22;50211;52.768;12.124;2023-06-22T10:39:36;30.80;99.90
64012;DHT22;50211;52.768;12.124;2023-06-22T10:42:02;31.20;99.90
64012;DHT22;50211;52.768;12.124;2023-06-22T10:44:27;31.20;99.90
64012;DHT22;50211;52.768;12.124;2023-06-22T10:46:53;31.20;99.90
64012;DHT22;50211;52.768;12.124;2023-06-22T10:49:18;30.90;99.90
64012;DHT22;50211;52.768;12.124;2023-06-22T10:51:44;31.00;99.90
64012;DHT22;50211;52.768;12.124;2023-06-22T10:54:09;31.60;99.90
64012;DHT22;50211;52.768;12.124;2023-06-22T10:56:35;31.80;99.90
64012;DHT22;50211;52.768;12.124;2023-06-22T10:59:00;31.90;99.90
64012;DHT22;50211;52.768;12.124;2023-06-22T11:01:27;31.70;99.90
64012;DHT22;50211;52.768;12.124;2023-06-22T11:03:53;31.80;99.90
64012;DHT22;50211;52.768;12.124;2023-06-22T11:06:18;31.80;99.90
64012;DHT22;50211;52.768;12.124;2023-06-22T11:08:44;31.50;99.90
64012;DHT22;50211;52.768;12.124;2023-06-22T11:11:10;31.00;99.90
64012;DHT22;50211;52.768;12.124;2023-06-22T11:13:36;30.90;99.90
64012;DHT22;50211;52.768;12.124;2023-06-22T11:16:01;30.90;99.90
64012;DHT22;50211;52.768;12.124;2023-06-22T11:18:27;30.90;99.90
64012;DHT22;50211;52.768;12.124;2023-06-22T11:20:52;30.80;99.90
64012;DHT22;50211;52.768;12.124;2023-06-22T11:23:18;30.10;99.90
64012;DHT22;50211;52.768;12.124;2023-06-22T11:25:44;30.00;99.90
64012;DHT22;50211;52.768;12.124;2023-06-22T11:28:10;29.70;99.90
64012;DHT22;50211;52.768;12.124;2023-06-22T11:30:35;29.50;99.90
64012;DHT22;50211;52.768;12.124;2023-06-22T11:33:01;29.60;99.90
64012;DHT22;50211;52.768;12.124;2023-06-22T11:35:26;29.80;99.90
64012;DHT22;50211;52.768;12.124;2023-06-22T11:37:52;30.30;99.90
64012;DHT22;50211;52.768;12.124;2023-06-22T11:40:17;31.20;99.90
64012;DHT22;50211;52.768;12.124;2023-06-22T11:42:43;31.90;99.90
64012;DHT22;50211;52.768;12.124;2023-06-22T11:45:08;32.10;99.90
64012;DHT22;50211;52.768;12.124;2023-06-22T11:47:34;32.60;99.90
64012;DHT22;50211;52.768;12.124;2023-06-22T11:50:00;32.70;99.10
64012;DHT22;50211;52.768;12.124;2023-06-22T11:52:26;32.70;99.90
64012;DHT22;50211;52.768;12.124;2023-06-22T11:54:52;32.60;99.80
64012;DHT22;50211;52.768;12.124;2023-06-22T11:57:18;32.40;99.40
64012;DHT22;50211;52.768;12.124;2023-06-22T11:59:43;32.20;98.60
64012;DHT22;50211;52.768;12.124;2023-06-22T12:02:09;32.20;99.20
64012;DHT22;50211;52.768;12.124;2023-06-22T12:04:35;32.10;98.70
64012;DHT22;50211;52.768;12.124;2023-06-22T12:07:00;32.10;98.20
64012;DHT22;50211;52.768;12.124;2023-06-22T12:09:26;31.70;98.70
64012;DHT22;50211;52.768;12.124;2023-06-22T12:11:51;31.20;99.60
64012;DHT22;50211;52.768;12.124;2023-06-22T12:14:17;30.60;99.90
64012;DHT22;50211;52.768;12.124;2023-06-22T12:16:42;30.90;99.90
64012;DHT22;50211;52.768;12.124;2023-06-22T12:19:09;31.30;99.90
64012;DHT22;50211;52.768;12.124;2023-06-22T12:21:35;32.40;99.90
64012;DHT22;50211;52.768;12.124;2023-06-22T12:24:00;32.90;98.50
64012;DHT22;50211;52.768;12.124;2023-06-22T12:26:26;33.50;98.60
64012;DHT22;50211;52.768;12.124;2023-06-22T12:28:51;33.70;98.20
64012;DHT22;50211;52.768;12.124;2023-06-22T12:31:17;33.20;97.20
64012;DHT22;50211;52.768;12.124;2023-06-22T12:33:42;32.80;97.30
64012;DHT22;50211;52.768;12.124;2023-06-22T12:36:08;33.00;98.20
64012;DHT22;50211;52.768;12.124;2023-06-22T12:38:34;33.10;98.00
64012;DHT22;50211;52.768;12.124;2023-06-22T12:41:00;32.80;98.00
64012;DHT22;50211;52.768;12.124;2023-06-22T12:43:26;33.10;98.00
64012;DHT22;50211;52.768;12.124;2023-06-22T12:45:51;32.80;97.40
64012;DHT22;50211;52.768;12.124;2023-06-22T12:48:18;32.90;98.00
64012;DHT22;50211;52.768;12.124;2023-06-22T12:50:44;33.00;97.10
64012;DHT22;50211;52.768;12.124;2023-06-22T12:53:09;32.70;96.80
64012;DHT22;50211;52.768;12.124;2023-06-22T12:55:35;32.40;97.60
64012;DHT22;50211;52.768;12.124;2023-06-22T12:58:00;32.70;97.00
64012;DHT22;50211;52.768;12.124;2023-06-22T13:00:26;33.00;96.70
64012;DHT22;50211;52.768;12.124;2023-06-22T13:02:52;32.90;96.50
64012;DHT22;50211;52.768;12.124;2023-06-22T13:05:17;32.70;96.60
64012;DHT22;50211;52.768;12.124;2023-06-22T13:07:43;32.90;96.20
64012;DHT22;50211;52.768;12.124;2023-06-22T13:10:08;32.40;96.30
64012;DHT22;50211;52.768;12.124;2023-06-22T13:12:34;32.20;96.90
64012;DHT22;50211;52.768;12.124;2023-06-22T13:14:59;32.00;97.30
64012;DHT22;50211;52.768;12.124;2023-06-22T13:17:25;32.00;97.50
64012;DHT22;50211;52.768;12.124;2023-06-22T13:19:50;32.20;97.40
64012;DHT22;50211;52.768;12.124;2023-06-22T13:22:27;32.60;97.10
64012;DHT22;50211;52.768;12.124;2023-06-22T13:24:54;32.40;96.80
64012;DHT22;50211;52.768;12.124;2023-06-22T13:27:20;32.60;97.00
64012;DHT22;50211;52.768;12.124;2023-06-22T13:29:45;32.70;96.20
64012;DHT22;50211;52.768;12.124;2023-06-22T13:32:11;33.20;97.00
64012;DHT22;50211;52.768;12.124;2023-06-22T13:34:36;33.70;95.60
64012;DHT22;50211;52.768;12.124;2023-06-22T13:37:02;34.00;96.10
64012;DHT22;50211;52.768;12.124;2023-06-22T13:39:27;34.30;95.00
64012;DHT22;50211;52.768;12.124;2023-06-22T13:41:53;34.10;94.50
64012;DHT22;50211;52.768;12.124;2023-06-22T13:44:18;33.90;94.50
64012;DHT22;50211;52.768;12.124;2023-06-22T13:46:44;33.90;94.00
64012;DHT22;50211;52.768;12.124;2023-06-22T13:49:09;34.10;95.00
64012;DHT22;50211;52.768;12.124;2023-06-22T13:51:36;34.10;94.50
64012;DHT22;50211;52.768;12.124;2023-06-22T13:54:01;33.90;94.10
64012;DHT22;50211;52.768;12.124;2023-06-22T13:56:27;33.50;94.70
64012;DHT22;50211;52.768;12.124;2023-06-22T13:58:52;33.00;94.90
64012;DHT22;50211;52.768;12.124;2023-06-22T14:01:18;32.70;95.70
64012;DHT22;50211;52.768;12.124;2023-06-22T14:03:43;31.90;96.30
64012;DHT22;50211;52.768;12.124;2023-06-22T14:06:12;31.40;96.30
64012;DHT22;50211;52.768;12.124;2023-06-22T14:08:37;31.20;97.10
64012;DHT22;50211;52.768;12.124;2023-06-22T14:11:03;31.60;97.00
64012;DHT22;50211;52.768;12.124;2023-06-22T14:13:28;31.60;96.70
64012;DHT22;50211;52.768;12.124;2023-06-22T14:15:54;31.50;97.00
64012;DHT22;50211;52.768;12.124;2023-06-22T14:18:20;31.30;96.90
64012;DHT22;50211;52.768;12.124;2023-06-22T14:20:48;31.00;97.30
64012;DHT22;50211;52.768;12.124;2023-06-22T14:23:14;30.80;98.10
64012;DHT22;50211;52.768;12.124;2023-06-22T14:25:40;30.40;97.70
64012;DHT22;50211;52.768;12.124;2023-06-22T14:28:05;30.10;98.00
64012;DHT22;50211;52.768;12.124;2023-06-22T14:30:31;30.30;98.70
64012;DHT22;50211;52.768;12.124;2023-06-22T14:32:56;30.60;99.10
64012;DHT22;50211;52.768;12.124;2023-06-22T14:35:22;30.80;98.40
64012;DHT22;50211;52.768;12.124;2023-06-22T14:37:49;30.70;97.50
64012;DHT22;50211;52.768;12.124;2023-06-22T14:40:15;30.60;97.50
64012;DHT22;50211;52.768;12.124;2023-06-22T14:42:40;30.40;98.30
64012;DHT22;50211;52.768;12.124;2023-06-22T14:45:06;30.50;98.40
64012;DHT22;50211;52.768;12.124;2023-06-22T14:47:32;30.60;98.10
64012;DHT22;50211;52.768;12.124;2023-06-22T14:49:57;30.70;98.90
64012;DHT22;50211;52.768;12.124;2023-06-22T14:52:23;30.70;97.90
64012;DHT22;50211;52.768;12.124;2023-06-22T14:54:49;31.10;97.70
64012;DHT22;50211;52.768;12.124;2023-06-22T14:57:16;31.50;97.40
64012;DHT22;50211;52.768;12.124;2023-06-22T14:59:46;31.40;96.70
64012;DHT22;50211;52.768;12.124;2023-06-22T15:02:11;31.30;97.30
64012;DHT22;50211;52.768;12.124;2023-06-22T15:04:37;31.10;96.80
64012;DHT22;50211;52.768;12.124;2023-06-22T15:07:02;30.90;97.00
64012;DHT22;50211;52.768;12.124;2023-06-22T15:09:28;30.70;97.30
64012;DHT22;50211;52.768;12.124;2023-06-22T15:11:53;30.50;97.60
64012;DHT22;50211;52.768;12.124;2023-06-22T15:14:39;30.10;97.80
64012;DHT22;50211;52.768;12.124;2023-06-22T15:17:05;29.80;97.90
64012;DHT22;50211;52.768;12.124;2023-06-22T15:19:31;29.70;98.70